sensor_id;sensor_type;location;lat;lon;timestamp;P1;durP1;ratioP1;P2;durP2;ratioP2
24585;SDS011;12743;52.262;6.172;2023-03-23T00:01:12;9.73;;;3.75;;
24585;SDS011;12743;52.262;6.172;2023-03-23T00:03:40;8.83;;;4.03;;
24585;SDS011;12743;52.262;6.172;2023-03-23T00:06:07;9.32;;;3.63;;
24585;SDS011;12743;52.262;6.172;2023-03-23T00:08:33;9.52;;;3.78;;
24585;SDS011;12743;52.262;6.172;2023-03-23T00:11:05;8.32;;;3.58;;
24585;SDS011;12743;52.262;6.172;2023-03-23T00:13:32;10.48;;;3.80;;
24585;SDS011;12743;52.262;6.172;2023-03-23T00:15:58;6.83;;;3.43;;
24585;SDS011;12743;52.262;6.172;2023-03-23T00:18:24;8.32;;;3.78;;
24585;SDS011;12743;52.262;6.172;2023-03-23T00:20:50;11.90;;;3.30;;
24585;SDS011;12743;52.262;6.172;2023-03-23T00:23:18;8.63;;;3.45;;
24585;SDS011;12743;52.262;6.172;2023-03-23T00:25:48;10.85;;;3.70;;
24585;SDS011;12743;52.262;6.172;2023-03-23T00:28:16;9.98;;;3.90;;
24585;SDS011;12743;52.262;6.172;2023-03-23T00:30:43;7.30;;;2.63;;
24585;SDS011;12743;52.262;6.172;2023-03-23T00:33:10;10.20;;;3.10;;
24585;SDS011;12743;52.262;6.172;2023-03-23T00:35:39;7.03;;;3.20;;
24585;SDS011;12743;52.262;6.172;2023-03-23T00:38:05;9.88;;;3.28;;
24585;SDS011;12743;52.262;6.172;2023-03-23T00:40:31;11.13;;;3.50;;
24585;SDS011;12743;52.262;6.172;2023-03-23T00:43:00;9.60;;;3.85;;
24585;SDS011;12743;52.262;6.172;2023-03-23T00:45:28;7.55;;;3.15;;
24585;SDS011;12743;52.262;6.172;2023-03-23T00:47:54;7.28;;;2.88;;
24585;SDS011;12743;52.262;6.172;2023-03-23T00:50:22;9.33;;;3.53;;
24585;SDS011;12743;52.262;6.172;2023-03-23T00:52:48;8.05;;;3.05;;
24585;SDS011;12743;52.262;6.172;2023-03-23T00:55:17;7.55;;;3.40;;
24585;SDS011;12743;52.262;6.172;2023-03-23T00:57:43;7.77;;;3.20;;
24585;SDS011;12743;52.262;6.172;2023-03-23T01:00:08;7.33;;;3.27;;
24585;SDS011;12743;52.262;6.172;2023-03-23T01:02:36;9.15;;;3.55;;
24585;SDS011;12743;52.262;6.172;2023-03-23T01:05:03;9.85;;;3.35;;
24585;SDS011;12743;52.262;6.172;2023-03-23T01:07:29;6.68;;;3.10;;
24585;SDS011;12743;52.262;6.172;2023-03-23T01:09:56;8.30;;;4.03;;
24585;SDS011;12743;52.262;6.172;2023-03-23T01:12:23;9.80;;;3.35;;
24585;SDS011;12743;52.262;6.172;2023-03-23T01:14:50;7.03;;;2.83;;
24585;SDS011;12743;52.262;6.172;2023-03-23T01:17:16;8.57;;;3.42;;
24585;SDS011;12743;52.262;6.172;2023-03-23T01:19:42;7.57;;;3.20;;
24585;SDS011;12743;52.262;6.172;2023-03-23T01:22:07;6.90;;;3.15;;
24585;SDS011;12743;52.262;6.172;2023-03-23T01:24:33;9.00;;;3.17;;
24585;SDS011;12743;52.262;6.172;2023-03-23T01:26:58;6.50;;;2.80;;
24585;SDS011;12743;52.262;6.172;2023-03-23T01:29:27;7.63;;;2.67;;
24585;SDS011;12743;52.262;6.172;2023-03-23T01:31:52;7.35;;;2.70;;
24585;SDS011;12743;52.262;6.172;2023-03-23T01:34:24;9.52;;;2.90;;
24585;SDS011;12743;52.262;6.172;2023-03-23T01:36:50;9.03;;;3.13;;
24585;SDS011;12743;52.262;6.172;2023-03-23T01:42:50;6.90;;;3.03;;
24585;SDS011;12743;52.262;6.172;2023-03-23T01:46:17;6.82;;;2.67;;
24585;SDS011;12743;52.262;6.172;2023-03-23T01:49:15;6.10;;;2.50;;
24585;SDS011;12743;52.262;6.172;2023-03-23T01:52:55;8.17;;;2.47;;
24585;SDS011;12743;52.262;6.172;2023-03-23T01:55:35;8.63;;;3.22;;
24585;SDS011;12743;52.262;6.172;2023-03-23T01:58:04;7.05;;;3.33;;
24585;SDS011;12743;52.262;6.172;2023-03-23T02:00:59;7.18;;;2.70;;
24585;SDS011;12743;52.262;6.172;2023-03-23T02:03:39;8.35;;;3.22;;
24585;SDS011;12743;52.262;6.172;2023-03-23T02:06:08;9.03;;;3.80;;
24585;SDS011;12743;52.262;6.172;2023-03-23T02:08:57;7.35;;;3.00;;
24585;SDS011;12743;52.262;6.172;2023-03-23T02:11:24;10.02;;;3.40;;
24585;SDS011;12743;52.262;6.172;2023-03-23T02:13:52;9.32;;;3.10;;
24585;SDS011;12743;52.262;6.172;2023-03-23T02:16:33;8.47;;;3.37;;
24585;SDS011;12743;52.262;6.172;2023-03-23T02:36:13;6.45;;;2.72;;
24585;SDS011;12743;52.262;6.172;2023-03-23T02:39:03;6.28;;;2.75;;
24585;SDS011;12743;52.262;6.172;2023-03-23T02:41:36;7.77;;;3.00;;
24585;SDS011;12743;52.262;6.172;2023-03-23T02:44:08;7.20;;;3.08;;
24585;SDS011;12743;52.262;6.172;2023-03-23T02:46:35;7.20;;;2.70;;
24585;SDS011;12743;52.262;6.172;2023-03-23T02:49:02;7.78;;;3.40;;
24585;SDS011;12743;52.262;6.172;2023-03-23T02:51:31;6.00;;;3.05;;
24585;SDS011;12743;52.262;6.172;2023-03-23T02:54:01;6.90;;;2.97;;
24585;SDS011;12743;52.262;6.172;2023-03-23T02:56:29;7.72;;;2.95;;
24585;SDS011;12743;52.262;6.172;2023-03-23T02:58:59;6.65;;;3.20;;
24585;SDS011;12743;52.262;6.172;2023-03-23T03:04:03;8.32;;;3.40;;
24585;SDS011;12743;52.262;6.172;2023-03-23T03:06:40;8.13;;;2.93;;
24585;SDS011;12743;52.262;6.172;2023-03-23T03:09:19;8.13;;;3.38;;
24585;SDS011;12743;52.262;6.172;2023-03-23T03:11:51;8.30;;;3.28;;
24585;SDS011;12743;52.262;6.172;2023-03-23T03:14:23;6.18;;;3.05;;
24585;SDS011;12743;52.262;6.172;2023-03-23T03:17:02;8.52;;;2.90;;
24585;SDS011;12743;52.262;6.172;2023-03-23T03:19:37;6.63;;;3.00;;
24585;SDS011;12743;52.262;6.172;2023-03-23T03:22:06;6.90;;;3.13;;
24585;SDS011;12743;52.262;6.172;2023-03-23T03:24:40;8.23;;;3.85;;
24585;SDS011;12743;52.262;6.172;2023-03-23T03:27:11;8.15;;;3.08;;
24585;SDS011;12743;52.262;6.172;2023-03-23T03:29:47;8.65;;;3.40;;
24585;SDS011;12743;52.262;6.172;2023-03-23T03:32:20;8.37;;;3.20;;
24585;SDS011;12743;52.262;6.172;2023-03-23T03:34:50;7.07;;;3.15;;
24585;SDS011;12743;52.262;6.172;2023-03-23T03:37:18;7.70;;;3.20;;
24585;SDS011;12743;52.262;6.172;2023-03-23T03:39:47;9.10;;;3.20;;
24585;SDS011;12743;52.262;6.172;2023-03-23T03:42:12;7.93;;;3.30;;
24585;SDS011;12743;52.262;6.172;2023-03-23T03:44:38;6.20;;;2.83;;
24585;SDS011;12743;52.262;6.172;2023-03-23T03:47:04;7.33;;;3.03;;
24585;SDS011;12743;52.262;6.172;2023-03-23T03:49:30;6.95;;;3.40;;
24585;SDS011;12743;52.262;6.172;2023-03-23T03:51:56;8.00;;;3.33;;
24585;SDS011;12743;52.262;6.172;2023-03-23T03:54:26;7.77;;;3.23;;
24585;SDS011;12743;52.262;6.172;2023-03-23T03:56:52;8.02;;;3.30;;
24585;SDS011;12743;52.262;6.172;2023-03-23T03:59:42;6.03;;;2.65;;
24585;SDS011;12743;52.262;6.172;2023-03-23T04:02:42;6.43;;;2.73;;
24585;SDS011;12743;52.262;6.172;2023-03-23T04:05:39;9.85;;;2.90;;
24585;SDS011;12743;52.262;6.172;2023-03-23T04:08:05;7.05;;;2.90;;
24585;SDS011;12743;52.262;6.172;2023-03-23T04:10:31;9.82;;;2.50;;
24585;SDS011;12743;52.262;6.172;2023-03-23T04:12:58;6.57;;;2.70;;
24585;SDS011;12743;52.262;6.172;2023-03-23T04:15:29;9.02;;;2.90;;
24585;SDS011;12743;52.262;6.172;2023-03-23T04:17:55;8.07;;;3.05;;
24585;SDS011;12743;52.262;6.172;2023-03-23T04:20:23;8.63;;;2.63;;
24585;SDS011;12743;52.262;6.172;2023-03-23T04:22:50;7.05;;;2.75;;
24585;SDS011;12743;52.262;6.172;2023-03-23T04:25:24;10.27;;;2.80;;
24585;SDS011;12743;52.262;6.172;2023-03-23T04:27:52;8.18;;;2.70;;
24585;SDS011;12743;52.262;6.172;2023-03-23T04:30:22;6.78;;;2.50;;
24585;SDS011;12743;52.262;6.172;2023-03-23T04:33:02;6.88;;;2.80;;
24585;SDS011;12743;52.262;6.172;2023-03-23T04:35:29;8.00;;;2.80;;
24585;SDS011;12743;52.262;6.172;2023-03-23T04:38:19;9.00;;;2.70;;
24585;SDS011;12743;52.262;6.172;2023-03-23T04:40:51;7.57;;;2.78;;
24585;SDS011;12743;52.262;6.172;2023-03-23T04:43:37;6.43;;;2.22;;
24585;SDS011;12743;52.262;6.172;2023-03-23T04:46:35;7.63;;;2.50;;
24585;SDS011;12743;52.262;6.172;2023-03-23T04:49:07;6.85;;;2.50;;
24585;SDS011;12743;52.262;6.172;2023-03-23T04:51:36;5.93;;;2.70;;
24585;SDS011;12743;52.262;6.172;2023-03-23T04:54:15;5.72;;;2.75;;
24585;SDS011;12743;52.262;6.172;2023-03-23T04:56:46;8.30;;;2.90;;
24585;SDS011;12743;52.262;6.172;2023-03-23T04:59:15;6.88;;;3.10;;
24585;SDS011;12743;52.262;6.172;2023-03-23T05:01:51;7.50;;;2.45;;
24585;SDS011;12743;52.262;6.172;2023-03-23T05:04:19;7.33;;;2.93;;
24585;SDS011;12743;52.262;6.172;2023-03-23T05:06:55;7.25;;;2.83;;
24585;SDS011;12743;52.262;6.172;2023-03-23T05:09:25;6.40;;;2.47;;
24585;SDS011;12743;52.262;6.172;2023-03-23T05:11:51;7.68;;;2.78;;
24585;SDS011;12743;52.262;6.172;2023-03-23T05:14:17;7.93;;;2.77;;
24585;SDS011;12743;52.262;6.172;2023-03-23T05:16:50;7.63;;;2.45;;
24585;SDS011;12743;52.262;6.172;2023-03-23T05:19:18;10.38;;;3.40;;
24585;SDS011;12743;52.262;6.172;2023-03-23T05:21:45;6.10;;;2.47;;
24585;SDS011;12743;52.262;6.172;2023-03-23T05:24:11;6.80;;;2.53;;
24585;SDS011;12743;52.262;6.172;2023-03-23T05:26:38;7.72;;;2.42;;
24585;SDS011;12743;52.262;6.172;2023-03-23T05:29:16;6.90;;;2.30;;
24585;SDS011;12743;52.262;6.172;2023-03-23T05:31:52;7.17;;;2.33;;
24585;SDS011;12743;52.262;6.172;2023-03-23T05:34:19;11.23;;;1.90;;
24585;SDS011;12743;52.262;6.172;2023-03-23T05:36:52;9.65;;;2.00;;
24585;SDS011;12743;52.262;6.172;2023-03-23T05:39:37;8.45;;;2.03;;
24585;SDS011;12743;52.262;6.172;2023-03-23T05:42:25;8.32;;;2.20;;
24585;SDS011;12743;52.262;6.172;2023-03-23T05:45:00;7.20;;;1.60;;
24585;SDS011;12743;52.262;6.172;2023-03-23T05:47:29;7.88;;;1.75;;
24585;SDS011;12743;52.262;6.172;2023-03-23T05:50:01;4.90;;;1.40;;
24585;SDS011;12743;52.262;6.172;2023-03-23T05:52:28;7.50;;;1.63;;
24585;SDS011;12743;52.262;6.172;2023-03-23T05:54:58;7.45;;;1.85;;
24585;SDS011;12743;52.262;6.172;2023-03-23T05:57:24;7.77;;;1.73;;
24585;SDS011;12743;52.262;6.172;2023-03-23T06:00:01;8.35;;;1.60;;
24585;SDS011;12743;52.262;6.172;2023-03-23T06:02:37;8.95;;;2.53;;
24585;SDS011;12743;52.262;6.172;2023-03-23T06:05:05;9.20;;;2.20;;
24585;SDS011;12743;52.262;6.172;2023-03-23T06:07:33;8.88;;;1.90;;
24585;SDS011;12743;52.262;6.172;2023-03-23T06:10:06;10.60;;;2.10;;
24585;SDS011;12743;52.262;6.172;2023-03-23T06:12:37;8.10;;;1.98;;
24585;SDS011;12743;52.262;6.172;2023-03-23T06:15:15;8.68;;;1.92;;
24585;SDS011;12743;52.262;6.172;2023-03-23T06:17:59;9.30;;;1.70;;
24585;SDS011;12743;52.262;6.172;2023-03-23T06:20:33;6.80;;;1.55;;
24585;SDS011;12743;52.262;6.172;2023-03-23T06:23:12;8.13;;;1.77;;
24585;SDS011;12743;52.262;6.172;2023-03-23T06:25:39;11.50;;;1.88;;
24585;SDS011;12743;52.262;6.172;2023-03-23T06:28:05;8.55;;;1.95;;
24585;SDS011;12743;52.262;6.172;2023-03-23T06:30:33;10.03;;;1.80;;
24585;SDS011;12743;52.262;6.172;2023-03-23T06:32:59;9.02;;;1.67;;
24585;SDS011;12743;52.262;6.172;2023-03-23T06:35:44;10.35;;;1.85;;
24585;SDS011;12743;52.262;6.172;2023-03-23T06:38:22;13.50;;;1.88;;
24585;SDS011;12743;52.262;6.172;2023-03-23T06:40:52;7.33;;;1.20;;
24585;SDS011;12743;52.262;6.172;2023-03-23T06:43:19;13.10;;;1.65;;
24585;SDS011;12743;52.262;6.172;2023-03-23T06:45:47;9.10;;;1.92;;
24585;SDS011;12743;52.262;6.172;2023-03-23T06:48:32;8.55;;;2.15;;
24585;SDS011;12743;52.262;6.172;2023-03-23T06:50:59;10.68;;;1.88;;
24585;SDS011;12743;52.262;6.172;2023-03-23T06:53:26;10.60;;;2.30;;
24585;SDS011;12743;52.262;6.172;2023-03-23T06:55:54;9.13;;;1.83;;
24585;SDS011;12743;52.262;6.172;2023-03-23T06:58:20;12.77;;;2.30;;
24585;SDS011;12743;52.262;6.172;2023-03-23T07:00:46;11.38;;;1.80;;
24585;SDS011;12743;52.262;6.172;2023-03-23T07:03:20;12.70;;;2.27;;
24585;SDS011;12743;52.262;6.172;2023-03-23T07:05:46;6.95;;;1.80;;
24585;SDS011;12743;52.262;6.172;2023-03-23T07:08:13;6.55;;;1.40;;
24585;SDS011;12743;52.262;6.172;2023-03-23T07:10:56;9.30;;;1.30;;
24585;SDS011;12743;52.262;6.172;2023-03-23T07:13:26;5.90;;;1.67;;
24585;SDS011;12743;52.262;6.172;2023-03-23T07:15:56;5.53;;;1.50;;
24585;SDS011;12743;52.262;6.172;2023-03-23T07:18:23;8.70;;;1.73;;
24585;SDS011;12743;52.262;6.172;2023-03-23T07:20:51;9.68;;;1.70;;
24585;SDS011;12743;52.262;6.172;2023-03-23T07:23:20;9.77;;;2.78;;
24585;SDS011;12743;52.262;6.172;2023-03-23T07:25:52;8.90;;;2.35;;
24585;SDS011;12743;52.262;6.172;2023-03-23T07:28:23;7.07;;;1.90;;
24585;SDS011;12743;52.262;6.172;2023-03-23T07:30:50;10.00;;;2.30;;
24585;SDS011;12743;52.262;6.172;2023-03-23T07:33:16;10.52;;;3.00;;
24585;SDS011;12743;52.262;6.172;2023-03-23T07:35:45;8.15;;;2.30;;
24585;SDS011;12743;52.262;6.172;2023-03-23T07:38:15;9.02;;;3.05;;
24585;SDS011;12743;52.262;6.172;2023-03-23T07:40:47;9.27;;;2.90;;
24585;SDS011;12743;52.262;6.172;2023-03-23T07:43:17;8.45;;;2.92;;
24585;SDS011;12743;52.262;6.172;2023-03-23T07:45:56;10.15;;;2.83;;
24585;SDS011;12743;52.262;6.172;2023-03-23T07:48:26;13.85;;;2.95;;
24585;SDS011;12743;52.262;6.172;2023-03-23T07:50:52;12.15;;;3.30;;
24585;SDS011;12743;52.262;6.172;2023-03-23T07:53:17;11.57;;;2.70;;
24585;SDS011;12743;52.262;6.172;2023-03-23T07:55:52;8.52;;;2.28;;
24585;SDS011;12743;52.262;6.172;2023-03-23T07:58:38;11.60;;;2.95;;
24585;SDS011;12743;52.262;6.172;2023-03-23T08:01:03;11.37;;;2.30;;
24585;SDS011;12743;52.262;6.172;2023-03-23T08:03:32;7.82;;;2.58;;
24585;SDS011;12743;52.262;6.172;2023-03-23T08:06:26;9.83;;;2.60;;
24585;SDS011;12743;52.262;6.172;2023-03-23T08:09:09;9.55;;;2.50;;
24585;SDS011;12743;52.262;6.172;2023-03-23T08:11:57;13.02;;;2.05;;
24585;SDS011;12743;52.262;6.172;2023-03-23T08:14:45;12.15;;;1.70;;
24585;SDS011;12743;52.262;6.172;2023-03-23T08:17:32;9.13;;;1.77;;
24585;SDS011;12743;52.262;6.172;2023-03-23T08:20:19;8.73;;;1.43;;
24585;SDS011;12743;52.262;6.172;2023-03-23T08:23:04;7.88;;;1.25;;
24585;SDS011;12743;52.262;6.172;2023-03-23T08:25:52;6.95;;;1.05;;
24585;SDS011;12743;52.262;6.172;2023-03-23T08:28:39;5.93;;;1.20;;
24585;SDS011;12743;52.262;6.172;2023-03-23T08:31:06;8.27;;;1.30;;
24585;SDS011;12743;52.262;6.172;2023-03-23T08:34:01;10.90;;;1.80;;
24585;SDS011;12743;52.262;6.172;2023-03-23T08:36:56;11.23;;;1.67;;
24585;SDS011;12743;52.262;6.172;2023-03-23T08:39:45;8.38;;;1.60;;
24585;SDS011;12743;52.262;6.172;2023-03-23T08:42:33;6.83;;;1.43;;
24585;SDS011;12743;52.262;6.172;2023-03-23T08:45:11;9.38;;;1.75;;
24585;SDS011;12743;52.262;6.172;2023-03-23T08:48:05;8.85;;;1.30;;
24585;SDS011;12743;52.262;6.172;2023-03-23T08:51:01;9.65;;;1.83;;
24585;SDS011;12743;52.262;6.172;2023-03-23T08:53:54;14.43;;;1.80;;
24585;SDS011;12743;52.262;6.172;2023-03-23T08:56:43;6.97;;;1.97;;
24585;SDS011;12743;52.262;6.172;2023-03-23T08:59:29;8.15;;;2.10;;
24585;SDS011;12743;52.262;6.172;2023-03-23T09:02:25;6.50;;;1.42;;
24585;SDS011;12743;52.262;6.172;2023-03-23T09:05:13;7.90;;;1.67;;
24585;SDS011;12743;52.262;6.172;2023-03-23T09:07:53;6.00;;;1.80;;
24585;SDS011;12743;52.262;6.172;2023-03-23T09:10:20;10.07;;;1.77;;
24585;SDS011;12743;52.262;6.172;2023-03-23T09:12:47;8.10;;;1.60;;
24585;SDS011;12743;52.262;6.172;2023-03-23T09:15:15;9.88;;;1.50;;
24585;SDS011;12743;52.262;6.172;2023-03-23T09:17:45;9.38;;;1.80;;
24585;SDS011;12743;52.262;6.172;2023-03-23T09:20:15;10.27;;;2.15;;
24585;SDS011;12743;52.262;6.172;2023-03-23T09:22:46;8.73;;;1.63;;
24585;SDS011;12743;52.262;6.172;2023-03-23T09:25:15;6.38;;;1.55;;
24585;SDS011;12743;52.262;6.172;2023-03-23T09:27:44;7.07;;;1.88;;
24585;SDS011;12743;52.262;6.172;2023-03-23T09:30:12;6.53;;;1.70;;
24585;SDS011;12743;52.262;6.172;2023-03-23T09:32:39;7.30;;;2.03;;
24585;SDS011;12743;52.262;6.172;2023-03-23T09:35:08;5.77;;;1.60;;
24585;SDS011;12743;52.262;6.172;2023-03-23T09:37:37;8.05;;;1.70;;
24585;SDS011;12743;52.262;6.172;2023-03-23T09:40:04;9.05;;;1.80;;
24585;SDS011;12743;52.262;6.172;2023-03-23T09:45:34;8.20;;;1.90;;
24585;SDS011;12743;52.262;6.172;2023-03-23T09:51:19;9.73;;;1.90;;
24585;SDS011;12743;52.262;6.172;2023-03-23T09:54:02;9.18;;;1.60;;
24585;SDS011;12743;52.262;6.172;2023-03-23T09:56:31;9.07;;;1.83;;
24585;SDS011;12743;52.262;6.172;2023-03-23T10:01:37;7.40;;;1.40;;
24585;SDS011;12743;52.262;6.172;2023-03-23T10:06:59;8.10;;;1.67;;
24585;SDS011;12743;52.262;6.172;2023-03-23T10:09:33;11.18;;;2.00;;
24585;SDS011;12743;52.262;6.172;2023-03-23T10:12:07;7.38;;;1.50;;
24585;SDS011;12743;52.262;6.172;2023-03-23T10:23:04;9.30;;;1.33;;
24585;SDS011;12743;52.262;6.172;2023-03-23T10:25:46;10.95;;;1.50;;
24585;SDS011;12743;52.262;6.172;2023-03-23T10:28:18;11.60;;;1.67;;
24585;SDS011;12743;52.262;6.172;2023-03-23T10:30:54;8.80;;;1.85;;
24585;SDS011;12743;52.262;6.172;2023-03-23T10:33:24;11.00;;;1.40;;
24585;SDS011;12743;52.262;6.172;2023-03-23T10:38:44;8.57;;;1.77;;
24585;SDS011;12743;52.262;6.172;2023-03-23T10:41:15;8.40;;;1.10;;
24585;SDS011;12743;52.262;6.172;2023-03-23T10:43:43;8.32;;;1.17;;
24585;SDS011;12743;52.262;6.172;2023-03-23T10:48:59;7.30;;;1.13;;
24585;SDS011;12743;52.262;6.172;2023-03-23T10:51:32;9.70;;;1.70;;
24585;SDS011;12743;52.262;6.172;2023-03-23T10:54:02;9.80;;;1.30;;
24585;SDS011;12743;52.262;6.172;2023-03-23T10:59:18;14.57;;;1.92;;
24585;SDS011;12743;52.262;6.172;2023-03-23T11:01:47;10.68;;;1.70;;
24585;SDS011;12743;52.262;6.172;2023-03-23T11:04:16;8.00;;;1.05;;
24585;SDS011;12743;52.262;6.172;2023-03-23T11:06:46;6.60;;;1.07;;
24585;SDS011;12743;52.262;6.172;2023-03-23T11:09:16;8.07;;;1.10;;
24585;SDS011;12743;52.262;6.172;2023-03-23T11:11:54;9.75;;;1.40;;
24585;SDS011;12743;52.262;6.172;2023-03-23T11:16:55;9.52;;;1.20;;
24585;SDS011;12743;52.262;6.172;2023-03-23T11:19:29;8.53;;;1.10;;
24585;SDS011;12743;52.262;6.172;2023-03-23T11:24:33;10.15;;;1.50;;
24585;SDS011;12743;52.262;6.172;2023-03-23T11:27:01;13.32;;;1.23;;
24585;SDS011;12743;52.262;6.172;2023-03-23T11:29:32;8.70;;;1.08;;
24585;SDS011;12743;52.262;6.172;2023-03-23T11:34:31;7.97;;;0.90;;
24585;SDS011;12743;52.262;6.172;2023-03-23T11:40:16;8.63;;;1.30;;
24585;SDS011;12743;52.262;6.172;2023-03-23T11:43:26;8.48;;;1.13;;
24585;SDS011;12743;52.262;6.172;2023-03-23T11:45:37;9.90;;;1.30;;
24585;SDS011;12743;52.262;6.172;2023-03-23T11:48:15;8.25;;;1.20;;
24585;SDS011;12743;52.262;6.172;2023-03-23T11:50:49;10.00;;;1.53;;
24585;SDS011;12743;52.262;6.172;2023-03-23T11:53:22;11.02;;;1.13;;
24585;SDS011;12743;52.262;6.172;2023-03-23T11:58:37;9.38;;;0.90;;
24585;SDS011;12743;52.262;6.172;2023-03-23T12:03:50;6.45;;;1.52;;
24585;SDS011;12743;52.262;6.172;2023-03-23T12:22:48;13.40;;;1.38;;
24585;SDS011;12743;52.262;6.172;2023-03-23T12:33:19;10.80;;;1.10;;
24585;SDS011;12743;52.262;6.172;2023-03-23T12:36:26;9.15;;;1.17;;
24585;SDS011;12743;52.262;6.172;2023-03-23T12:39:26;9.57;;;1.20;;
24585;SDS011;12743;52.262;6.172;2023-03-23T12:44:46;8.40;;;1.33;;
24585;SDS011;12743;52.262;6.172;2023-03-23T12:50:16;8.85;;;1.08;;
24585;SDS011;12743;52.262;6.172;2023-03-23T12:52:58;13.43;;;1.37;;
24585;SDS011;12743;52.262;6.172;2023-03-23T12:55:33;7.40;;;0.93;;
24585;SDS011;12743;52.262;6.172;2023-03-23T12:58:09;12.50;;;1.35;;
24585;SDS011;12743;52.262;6.172;2023-03-23T13:06:07;10.33;;;1.50;;
24585;SDS011;12743;52.262;6.172;2023-03-23T13:08:51;7.82;;;1.10;;
24585;SDS011;12743;52.262;6.172;2023-03-23T13:11:24;9.57;;;1.67;;
24585;SDS011;12743;52.262;6.172;2023-03-23T13:14:18;11.82;;;1.00;;
24585;SDS011;12743;52.262;6.172;2023-03-23T13:17:24;9.00;;;1.00;;
24585;SDS011;12743;52.262;6.172;2023-03-23T13:19:55;13.33;;;0.90;;
24585;SDS011;12743;52.262;6.172;2023-03-23T13:25:07;7.97;;;0.95;;
24585;SDS011;12743;52.262;6.172;2023-03-23T13:27:39;7.75;;;1.08;;
24585;SDS011;12743;52.262;6.172;2023-03-23T13:30:05;11.83;;;2.17;;
24585;SDS011;12743;52.262;6.172;2023-03-23T13:32:48;9.90;;;0.95;;
24585;SDS011;12743;52.262;6.172;2023-03-23T13:35:14;6.65;;;0.80;;
24585;SDS011;12743;52.262;6.172;2023-03-23T13:37:50;10.52;;;1.23;;
24585;SDS011;12743;52.262;6.172;2023-03-23T13:40:27;11.13;;;1.20;;
24585;SDS011;12743;52.262;6.172;2023-03-23T13:42:58;9.98;;;1.20;;
24585;SDS011;12743;52.262;6.172;2023-03-23T13:48:18;7.93;;;0.90;;
24585;SDS011;12743;52.262;6.172;2023-03-23T13:50:56;6.10;;;1.10;;
24585;SDS011;12743;52.262;6.172;2023-03-23T13:53:45;5.57;;;0.63;;
24585;SDS011;12743;52.262;6.172;2023-03-23T13:56:17;9.45;;;1.00;;
24585;SDS011;12743;52.262;6.172;2023-03-23T13:58:45;6.97;;;1.00;;
24585;SDS011;12743;52.262;6.172;2023-03-23T14:01:17;6.72;;;1.27;;
24585;SDS011;12743;52.262;6.172;2023-03-23T14:03:55;6.25;;;1.23;;
24585;SDS011;12743;52.262;6.172;2023-03-23T14:06:21;9.70;;;1.30;;
24585;SDS011;12743;52.262;6.172;2023-03-23T14:09:04;7.88;;;0.90;;
24585;SDS011;12743;52.262;6.172;2023-03-23T14:11:45;7.88;;;0.93;;
24585;SDS011;12743;52.262;6.172;2023-03-23T14:14:14;5.72;;;1.08;;
24585;SDS011;12743;52.262;6.172;2023-03-23T14:16:48;5.07;;;0.63;;
24585;SDS011;12743;52.262;6.172;2023-03-23T14:19:18;10.97;;;0.90;;
24585;SDS011;12743;52.262;6.172;2023-03-23T14:21:52;10.57;;;0.98;;
24585;SDS011;12743;52.262;6.172;2023-03-23T14:26:53;6.70;;;1.20;;
24585;SDS011;12743;52.262;6.172;2023-03-23T14:29:27;6.10;;;1.00;;
24585;SDS011;12743;52.262;6.172;2023-03-23T14:31:56;7.83;;;1.13;;
24585;SDS011;12743;52.262;6.172;2023-03-23T14:34:24;7.18;;;1.00;;
24585;SDS011;12743;52.262;6.172;2023-03-23T14:36:53;5.70;;;0.73;;
24585;SDS011;12743;52.262;6.172;2023-03-23T14:41:55;8.13;;;1.50;;
24585;SDS011;12743;52.262;6.172;2023-03-23T14:44:28;7.13;;;1.27;;
24585;SDS011;12743;52.262;6.172;2023-03-23T14:46:56;8.32;;;1.10;;
24585;SDS011;12743;52.262;6.172;2023-03-23T14:49:30;5.72;;;0.90;;
24585;SDS011;12743;52.262;6.172;2023-03-23T14:52:02;7.00;;;1.30;;
24585;SDS011;12743;52.262;6.172;2023-03-23T14:54:34;8.57;;;1.05;;
24585;SDS011;12743;52.262;6.172;2023-03-23T14:57:17;5.82;;;1.10;;
24585;SDS011;12743;52.262;6.172;2023-03-23T14:59:45;7.38;;;0.95;;
24585;SDS011;12743;52.262;6.172;2023-03-23T15:02:34;8.23;;;1.00;;
24585;SDS011;12743;52.262;6.172;2023-03-23T15:05:05;5.07;;;1.03;;
24585;SDS011;12743;52.262;6.172;2023-03-23T15:07:38;7.82;;;1.10;;
24585;SDS011;12743;52.262;6.172;2023-03-23T15:10:08;5.30;;;0.80;;
24585;SDS011;12743;52.262;6.172;2023-03-23T15:12:38;6.30;;;1.00;;
24585;SDS011;12743;52.262;6.172;2023-03-23T15:15:05;6.40;;;1.20;;
24585;SDS011;12743;52.262;6.172;2023-03-23T15:17:36;5.20;;;1.10;;
24585;SDS011;12743;52.262;6.172;2023-03-23T15:20:09;5.40;;;1.08;;
24585;SDS011;12743;52.262;6.172;2023-03-23T15:23:22;6.60;;;1.58;;
24585;SDS011;12743;52.262;6.172;2023-03-23T15:25:53;6.57;;;1.40;;
24585;SDS011;12743;52.262;6.172;2023-03-23T15:28:22;4.93;;;1.20;;
24585;SDS011;12743;52.262;6.172;2023-03-23T15:30:55;8.65;;;1.40;;
24585;SDS011;12743;52.262;6.172;2023-03-23T15:33:25;6.13;;;1.40;;
24585;SDS011;12743;52.262;6.172;2023-03-23T15:35:56;5.35;;;1.13;;
24585;SDS011;12743;52.262;6.172;2023-03-23T15:38:24;8.20;;;1.43;;
24585;SDS011;12743;52.262;6.172;2023-03-23T15:40:54;8.70;;;1.30;;
24585;SDS011;12743;52.262;6.172;2023-03-23T15:48:45;9.77;;;1.50;;
24585;SDS011;12743;52.262;6.172;2023-03-23T15:51:13;6.97;;;1.00;;
24585;SDS011;12743;52.262;6.172;2023-03-23T15:53:40;4.95;;;0.80;;
24585;SDS011;12743;52.262;6.172;2023-03-23T15:56:07;7.43;;;1.00;;
24585;SDS011;12743;52.262;6.172;2023-03-23T15:58:35;7.72;;;1.35;;
24585;SDS011;12743;52.262;6.172;2023-03-23T16:06:44;6.68;;;1.00;;
24585;SDS011;12743;52.262;6.172;2023-03-23T16:09:15;8.30;;;0.90;;
24585;SDS011;12743;52.262;6.172;2023-03-23T16:11:43;8.45;;;0.80;;
24585;SDS011;12743;52.262;6.172;2023-03-23T16:14:10;9.65;;;1.10;;
24585;SDS011;12743;52.262;6.172;2023-03-23T16:16:38;10.20;;;1.37;;
24585;SDS011;12743;52.262;6.172;2023-03-23T16:19:10;6.82;;;1.65;;
24585;SDS011;12743;52.262;6.172;2023-03-23T16:21:38;5.88;;;0.82;;
24585;SDS011;12743;52.262;6.172;2023-03-23T16:24:06;7.53;;;1.65;;
24585;SDS011;12743;52.262;6.172;2023-03-23T16:26:34;5.53;;;1.00;;
24585;SDS011;12743;52.262;6.172;2023-03-23T16:29:02;7.53;;;1.33;;
24585;SDS011;12743;52.262;6.172;2023-03-23T16:32:04;6.72;;;1.25;;
24585;SDS011;12743;52.262;6.172;2023-03-23T16:37:51;6.55;;;1.05;;
24585;SDS011;12743;52.262;6.172;2023-03-23T16:40:45;8.07;;;1.73;;
24585;SDS011;12743;52.262;6.172;2023-03-23T16:43:12;9.10;;;1.37;;
24585;SDS011;12743;52.262;6.172;2023-03-23T16:45:41;9.65;;;1.05;;
24585;SDS011;12743;52.262;6.172;2023-03-23T16:48:10;9.05;;;1.25;;
24585;SDS011;12743;52.262;6.172;2023-03-23T16:50:39;11.20;;;2.08;;
24585;SDS011;12743;52.262;6.172;2023-03-23T16:53:06;7.78;;;1.25;;
24585;SDS011;12743;52.262;6.172;2023-03-23T16:55:36;8.23;;;1.17;;
24585;SDS011;12743;52.262;6.172;2023-03-23T16:58:05;10.40;;;1.52;;
24585;SDS011;12743;52.262;6.172;2023-03-23T17:00:43;7.80;;;1.40;;
24585;SDS011;12743;52.262;6.172;2023-03-23T17:03:13;7.15;;;1.27;;
24585;SDS011;12743;52.262;6.172;2023-03-23T17:05:42;10.00;;;1.63;;
24585;SDS011;12743;52.262;6.172;2023-03-23T17:08:10;8.80;;;1.07;;
24585;SDS011;12743;52.262;6.172;2023-03-23T17:10:38;7.50;;;1.30;;
24585;SDS011;12743;52.262;6.172;2023-03-23T17:13:06;9.18;;;1.85;;
24585;SDS011;12743;52.262;6.172;2023-03-23T17:15:34;8.07;;;1.38;;
24585;SDS011;12743;52.262;6.172;2023-03-23T17:18:06;9.95;;;1.45;;
24585;SDS011;12743;52.262;6.172;2023-03-23T17:20:33;8.43;;;1.50;;
24585;SDS011;12743;52.262;6.172;2023-03-23T17:23:01;10.63;;;2.00;;
24585;SDS011;12743;52.262;6.172;2023-03-23T17:25:29;7.25;;;1.20;;
24585;SDS011;12743;52.262;6.172;2023-03-23T17:27:57;7.32;;;1.15;;
24585;SDS011;12743;52.262;6.172;2023-03-23T17:30:34;8.10;;;1.50;;